aviador You're here:

YAMB Decoded Metar

AMBERLEY in _UNIDENTIFIED
Report Time2017-10-20 12:00:00
UTC Time2017-10-20 12:26:43
Flight Rules vfr VFR
Wind160° at 01 kt
W.Decomp.*RWY 15: 1.0 kt HW 0 kt LCW
RWY 22: 0.3 kt HW 0.9 kt LCW
W.Rank160° ranks 25
Current wind is below 160° avg. (6.3)
Visibility9999 m
Phenomena:N/A
Clouds:N/A
Expected CloudBase > 1,200 ft AGL from Temp-Dew spread
CeilingNone
Temp18°C (ISA +3)
Dew Point15°C (83% RH)
QNH1016 hPa
Density Alt591 ft
Elevation92 ft
Report Wrong Elevation
Raw Report
METAR YAMB 201200Z AUTO 16001KT 9999 // NCD 18/15 Q1016=

Extra information for YAMB:More info

Metar Taf Metar & Taf Last 4 Metars F.Rules Stats Wind Profile Meteogram Temp Stats Airport Information Weather charts Add Link Nearby VenuesMetar ALERT Operation Metar Decoded Social comments